Valor — WDD8691 — position and weather

sailwx.info

Track history (hours):
 
Tides and Currents Weather Stations Pressure Air Temp Water Temp Dewpoint Dewpoint Depression Visibility Wind Speed Wind Dir Waves Ship Positions

Valor

Owner: Crowley Marine Services, Seattle, WA. More information available from US FCC via Universal Licensing System and Coast Guard Vessel Documentation Center.

Last reported at 2016-Dec-08 01:33 UTC. Time now 2016-Dec-08 02:12 UTC.
Position N 37°49' W 122°20'.

Length 8 m; draft 5.5 m.

Type: Tug. MMSI: 367301480.

Date/timePositionNaut miles runAvg speedWind from/ knotsBaromVisibWave heightAir tempDewpointWater temp
2016-Dec-08 01:33N 37°49' W 122°20'2 1.5
2016-Dec-08 00:33N 37°49' W 122°19'0 0.0
2016-Dec-07 23:33N 37°49' W 122°19'0 0.0
2016-Dec-07 22:33N 37°49' W 122°19'0 0.0
2016-Dec-07 21:33N 37°49' W 122°19'0 0.0
2016-Dec-07 20:33N 37°49' W 122°19'0 0.0
2016-Dec-07 19:33N 37°49' W 122°19'0 0.0
2016-Dec-07 18:33N 37°49' W 122°19'0 0.0
2016-Dec-07 17:33N 37°49' W 122°19'0 0.0
2016-Dec-07 16:33N 37°49' W 122°19'0 0.0
2016-Dec-07 15:34N 37°49' W 122°19'0 0.0
2016-Dec-07 14:33N 37°49' W 122°19'0 0.0
2016-Dec-07 13:33N 37°49' W 122°19'0 0.0
2016-Dec-07 12:33N 37°49' W 122°19'1 1.0
2016-Dec-07 11:33N 37°49' W 122°20'0 0.1
2016-Dec-07 10:33N 37°49' W 122°20'1 1.1
2016-Dec-07 09:33N 37°49' W 122°19'0 0.0
2016-Dec-07 08:33N 37°49' W 122°19'0 0.0
2016-Dec-07 07:33N 37°49' W 122°19'0 0.0
2016-Dec-07 06:33N 37°49' W 122°19'0 0.0
2016-Dec-07 05:33N 37°49' W 122°19'0 0.0
2016-Dec-07 04:33N 37°49' W 122°19'7 6.9
2016-Dec-07 03:33N 37°54' W 122°25'1 1.1
2016-Dec-07 02:33N 37°55' W 122°25'2 2.2
2016-Dec-07 01:33N 37°55' W 122°22'0 0.2
2016-Dec-07 00:33N 37°55' W 122°22'0 0.2
2016-Dec-06 23:33N 37°54' W 122°22'5 4.7
2016-Dec-06 22:33N 37°50' W 122°22'2 2.3
2016-Dec-06 21:33N 37°49' W 122°19'0 0.0
2016-Dec-06 20:33N 37°49' W 122°19'0 0.0
2016-Dec-06 18:33N 37°49' W 122°19'0 0.0
2016-Dec-06 17:33N 37°49' W 122°19'0 0.0
2016-Dec-06 16:33N 37°49' W 122°19'0 0.0
2016-Dec-06 15:33N 37°49' W 122°19'1 1.1
2016-Dec-06 14:33N 37°49' W 122°20'0 0.2
2016-Dec-06 13:33N 37°49' W 122°20'1 1.2
2016-Dec-06 12:33N 37°49' W 122°19'0 0.0
2016-Dec-06 11:33N 37°49' W 122°19'0 0.0
2016-Dec-06 10:33N 37°49' W 122°19'0 0.0
2016-Dec-06 09:33N 37°49' W 122°19'0 0.0
2016-Dec-06 08:33N 37°49' W 122°19'0 0.0
2016-Dec-06 07:33N 37°49' W 122°19'0 0.0
2016-Dec-06 06:33N 37°49' W 122°19'0 0.0
2016-Dec-06 05:33N 37°49' W 122°19'0 0.0
2016-Dec-06 04:33N 37°49' W 122°19'0 0.0
2016-Dec-06 03:33N 37°49' W 122°19'0 0.0
2016-Dec-06 02:33N 37°49' W 122°19'1 1.0
2016-Dec-06 01:33N 37°49' W 122°20'3 3.4
2016-Dec-06 00:33N 37°48' W 122°24'0 0.0
2016-Dec-05 23:33N 37°48' W 122°24'0 0.0
2016-Dec-05 22:33N 37°48' W 122°24'0 0.0
2016-Dec-05 21:33N 37°48' W 122°24'10 9.3
2016-Dec-05 20:31N 37°58' W 122°26'9 9.3
2016-Dec-05 19:33N 38°03' W 122°17'3 2.7
2016-Dec-05 18:33N 38°04' W 122°14'0 0.0
2016-Dec-05 13:28N 38°04' W 122°14'2 0.8
2016-Dec-05 10:28N 38°03' W 122°11'2 0.8
2016-Dec-05 07:33N 38°04' W 122°13'5 3.7
2016-Dec-05 06:18N 38°02' W 122°08'3 0.6
2016-Dec-05 01:33N 38°03' W 122°11'2 1.7
2016-Dec-05 00:33N 38°04' W 122°13'5 0.5
2016-Dec-04 14:23N 38°02' W 122°07'8 0.5
2016-Dec-03 22:23N 38°03' W 122°18'910.6
2016-Dec-03 21:34N 37°58' W 122°26'1010.2
2016-Dec-03 20:33N 37°48' W 122°22'3 2.5
2016-Dec-03 19:33N 37°46' W 122°21'2 2.2
2016-Dec-03 18:33N 37°48' W 122°21'3 3.1
2016-Dec-03 17:33N 37°46' W 122°23'0 0.1
2016-Dec-03 16:33N 37°46' W 122°23'1 1.4
2016-Dec-03 15:33N 37°47' W 122°23'3 3.0
2016-Dec-03 14:33N 37°49' W 122°20'1 1.1
2016-Dec-03 13:34N 37°48' W 122°19'2 2.2
2016-Dec-03 12:33N 37°48' W 122°22'3 2.8
2016-Dec-03 11:33N 37°49' W 122°19'0 0.0
2016-Dec-03 10:33N 37°49' W 122°19'0 0.0
2016-Dec-03 09:33N 37°49' W 122°19'0 0.0
2016-Dec-03 08:33N 37°49' W 122°19'0 0.0
2016-Dec-03 07:33N 37°49' W 122°19'0 0.0
2016-Dec-03 06:33N 37°49' W 122°19'0 0.0
2016-Dec-03 05:33N 37°49' W 122°19'0 0.0
2016-Dec-03 04:33N 37°49' W 122°19'2 1.5
2016-Dec-03 03:33N 37°48' W 122°19'2 1.7
2016-Dec-03 02:34N 37°48' W 122°17'5 4.8
2016-Dec-03 01:33N 37°49' W 122°23'2 2.1
2016-Dec-03 00:33N 37°48' W 122°21'2 1.8
2016-Dec-02 23:33N 37°49' W 122°19'0 0.0
2016-Dec-02 22:33N 37°49' W 122°19'4 4.2
2016-Dec-02 21:33N 37°51' W 122°23'4 4.2
2016-Dec-02 20:33N 37°55' W 122°25'0 0.0
2016-Dec-02 19:33N 37°55' W 122°25'7 7.3
2016-Dec-02 18:33N 37°49' W 122°21'2 2.0
2016-Dec-02 17:33N 37°49' W 122°19'0 0.0
2016-Dec-02 16:33N 37°49' W 122°19'0 0.0
2016-Dec-02 15:33N 37°49' W 122°19'0 0.0
2016-Dec-02 14:33N 37°49' W 122°19'1 1.0
2016-Dec-02 13:33N 37°49' W 122°20'0 0.3
2016-Dec-02 12:33N 37°49' W 122°20'0 0.0
2016-Dec-02 11:33N 37°49' W 122°20'0 0.0
2016-Dec-02 10:33N 37°49' W 122°20'0 0.0
2016-Dec-02 09:33N 37°49' W 122°20'0 0.0
2016-Dec-02 08:33N 37°49' W 122°20'0 0.0
2016-Dec-02 07:33N 37°49' W 122°20'0 0.0
2016-Dec-02 06:33N 37°49' W 122°20'0 0.0
2016-Dec-02 05:33N 37°49' W 122°20'0 0.0
2016-Dec-02 04:33N 37°49' W 122°20'1 0.7
2016-Dec-02 03:33N 37°49' W 122°21'9 9.2
2016-Dec-02 02:33N 37°57' W 122°26'1110.3
2016-Dec-02 01:29N 38°04' W 122°15'3 0.9
2016-Dec-01 22:33N 38°03' W 122°18'9 9.3
2016-Dec-01 21:33N 37°57' W 122°27'1010.1
2016-Dec-01 20:33N 37°48' W 122°22'3 3.2
2016-Dec-01 19:34N 37°45' W 122°21'4 3.8
2016-Dec-01 18:33N 37°49' W 122°20'0 0.0
2016-Dec-01 17:33N 37°49' W 122°20'0 0.0
2016-Dec-01 16:33N 37°49' W 122°20'0 0.0
2016-Dec-01 15:33N 37°49' W 122°20'0 0.3
2016-Dec-01 14:33N 37°49' W 122°20'1 1.3
2016-Dec-01 13:33N 37°48' W 122°21'2 2.3
2016-Dec-01 12:33N 37°49' W 122°19'0 0.0
2016-Dec-01 11:33N 37°49' W 122°19'0 0.0
2016-Dec-01 10:33N 37°49' W 122°19'0 0.0
2016-Dec-01 09:33N 37°49' W 122°19'0 0.0
2016-Dec-01 08:33N 37°49' W 122°19'0 0.0
2016-Dec-01 07:33N 37°49' W 122°19'0 0.0
2016-Dec-01 06:33N 37°49' W 122°19'0 0.0
2016-Dec-01 05:33N 37°49' W 122°19'0 0.0
2016-Dec-01 04:33N 37°49' W 122°19'0 0.0
2016-Dec-01 03:33N 37°49' W 122°19'0 0.0
2016-Dec-01 02:33N 37°49' W 122°19'0 0.0
2016-Dec-01 01:33N 37°49' W 122°19'0 0.0
2016-Dec-01 00:33N 37°49' W 122°19'0 0.0
2016-Nov-30 23:33N 37°49' W 122°19'0 0.0
2016-Nov-30 22:33N 37°49' W 122°19'0 0.0
2016-Nov-30 21:33N 37°49' W 122°19'0 0.0
2016-Nov-30 20:33N 37°49' W 122°19'0 0.0
2016-Nov-30 19:33N 37°49' W 122°19'0 0.0
2016-Nov-30 18:33N 37°49' W 122°19'0 0.0
2016-Nov-30 17:33N 37°49' W 122°19'0 0.0
2016-Nov-30 16:33N 37°49' W 122°19'0 0.0
2016-Nov-30 15:33N 37°49' W 122°19'0 0.0
2016-Nov-30 14:33N 37°49' W 122°19'1 1.1
2016-Nov-30 13:33N 37°49' W 122°20'1 0.6
2016-Nov-30 12:33N 37°48' W 122°21'2 1.8
2016-Nov-30 11:33N 37°49' W 122°19'0 0.0
2016-Nov-30 10:33N 37°49' W 122°19'0 0.0
2016-Nov-30 09:33N 37°49' W 122°19'0 0.0
2016-Nov-30 08:33N 37°49' W 122°19'0 0.0
2016-Nov-30 07:33N 37°49' W 122°19'0 0.0
2016-Nov-30 06:33N 37°49' W 122°19'0 0.0
2016-Nov-30 05:33N 37°49' W 122°19'0 0.0
2016-Nov-30 04:33N 37°49' W 122°19'0 0.0
2016-Nov-30 03:33N 37°49' W 122°19'0 0.0
2016-Nov-30 02:33N 37°49' W 122°19'0 0.0
2016-Nov-30 01:33N 37°49' W 122°19'1 0.9
2016-Nov-30 00:33N 37°49' W 122°20'0 0.1
2016-Nov-29 23:33N 37°49' W 122°20'6 5.6
2016-Nov-29 22:33N 37°53' W 122°25'10 9.5
2016-Nov-29 21:33N 38°02' W 122°21'10 4.7
2016-Nov-29 19:22N 38°02' W 122°08'6 6.4
2016-Nov-29 18:30N 38°04' W 122°15'1010.5
2016-Nov-29 17:33N 37°59' W 122°26'9 8.6
2016-Nov-29 16:33N 37°50' W 122°27'2 2.0
2016-Nov-29 15:33N 37°49' W 122°29'7 7.3
2016-Nov-29 14:33N 37°48' W 122°20'2 1.8
2016-Nov-29 13:34N 37°48' W 122°18'1 0.9
2016-Nov-29 12:34N 37°48' W 122°19'2 1.6
2016-Nov-29 11:33N 37°49' W 122°19'0 0.0
2016-Nov-29 10:33N 37°49' W 122°19'0 0.0
2016-Nov-29 09:33N 37°49' W 122°19'0 0.0
2016-Nov-29 08:33N 37°49' W 122°19'0 0.1
2016-Nov-29 07:33N 37°49' W 122°19'0 0.1
2016-Nov-29 06:33N 37°49' W 122°19'0 0.0
2016-Nov-29 05:33N 37°49' W 122°19'0 0.0
2016-Nov-29 04:33N 37°49' W 122°19'0 0.0
2016-Nov-29 03:33N 37°49' W 122°19'0 0.0
2016-Nov-29 02:33N 37°49' W 122°19'0 0.0
2016-Nov-29 01:33N 37°49' W 122°19'2 2.4
2016-Nov-29 00:33N 37°50' W 122°22'5 5.0
2016-Nov-28 23:33N 37°54' W 122°24'1 1.4
2016-Nov-28 22:33N 37°55' W 122°22'0 0.0
2016-Nov-28 21:33N 37°55' W 122°22'3 3.4
2016-Nov-28 20:33N 37°52' W 122°24'5 5.3
2016-Nov-28 19:33N 37°49' W 122°19'0 0.0
2016-Nov-28 18:33N 37°49' W 122°19'0 0.0
2016-Nov-28 17:33N 37°49' W 122°19'0 0.0
2016-Nov-28 16:33N 37°49' W 122°19'0 0.0
2016-Nov-28 15:33N 37°49' W 122°19'0 0.0
2016-Nov-28 14:33N 37°49' W 122°19'2 1.6
2016-Nov-28 13:34N 37°48' W 122°19'3 3.2
2016-Nov-28 12:34N 37°48' W 122°23'2 2.1
2016-Nov-28 11:33N 37°49' W 122°20'0 0.0
2016-Nov-28 10:33N 37°49' W 122°20'0 0.0
2016-Nov-28 09:33N 37°49' W 122°20'0 0.0
2016-Nov-28 08:33N 37°49' W 122°20'0 0.0
2016-Nov-28 07:33N 37°49' W 122°20'0 0.0
2016-Nov-28 06:33N 37°49' W 122°20'5 5.2
2016-Nov-28 05:33N 37°53' W 122°24'3 2.7
2016-Nov-28 04:33N 37°55' W 122°25'5 4.6
2016-Nov-28 03:33N 37°51' W 122°24'6 5.8
2016-Nov-28 02:33N 37°45' W 122°21'  
Track history (hours):
 
Tides and Currents Weather Stations Pressure Air Temp Water Temp Dewpoint Dewpoint Depression Visibility Wind Speed Wind Dir Waves Ship Positions

Valor

Owner: Crowley Marine Services, Seattle, WA. More information available from US FCC via Universal Licensing System and Coast Guard Vessel Documentation Center.

Last reported at 2016-Dec-08 01:33 UTC. Time now 2016-Dec-08 02:12 UTC.
Position N 37°49' W 122°20'.

Length 8 m; draft 5.5 m.

Type: Tug. MMSI: 367301480.

Date/timePositionNaut miles runAvg speedWind from/ knotsBaromVisibWave heightAir tempDewpointWater temp
2016-Dec-08 01:33N 37°49' W 122°20'2 1.5
2016-Dec-08 00:33N 37°49' W 122°19'0 0.0
2016-Dec-07 23:33N 37°49' W 122°19'0 0.0
2016-Dec-07 22:33N 37°49' W 122°19'0 0.0
2016-Dec-07 21:33N 37°49' W 122°19'0 0.0
2016-Dec-07 20:33N 37°49' W 122°19'0 0.0
2016-Dec-07 19:33N 37°49' W 122°19'0 0.0
2016-Dec-07 18:33N 37°49' W 122°19'0 0.0
2016-Dec-07 17:33N 37°49' W 122°19'0 0.0
2016-Dec-07 16:33N 37°49' W 122°19'0 0.0
2016-Dec-07 15:34N 37°49' W 122°19'0 0.0
2016-Dec-07 14:33N 37°49' W 122°19'0 0.0
2016-Dec-07 13:33N 37°49' W 122°19'0 0.0
2016-Dec-07 12:33N 37°49' W 122°19'1 1.0
2016-Dec-07 11:33N 37°49' W 122°20'0 0.1
2016-Dec-07 10:33N 37°49' W 122°20'1 1.1
2016-Dec-07 09:33N 37°49' W 122°19'0 0.0
2016-Dec-07 08:33N 37°49' W 122°19'0 0.0
2016-Dec-07 07:33N 37°49' W 122°19'0 0.0
2016-Dec-07 06:33N 37°49' W 122°19'0 0.0
2016-Dec-07 05:33N 37°49' W 122°19'0 0.0
2016-Dec-07 04:33N 37°49' W 122°19'7 6.9
2016-Dec-07 03:33N 37°54' W 122°25'1 1.1
2016-Dec-07 02:33N 37°55' W 122°25'2 2.2
2016-Dec-07 01:33N 37°55' W 122°22'0 0.2
2016-Dec-07 00:33N 37°55' W 122°22'0 0.2
2016-Dec-06 23:33N 37°54' W 122°22'5 4.7
2016-Dec-06 22:33N 37°50' W 122°22'2 2.3
2016-Dec-06 21:33N 37°49' W 122°19'0 0.0
2016-Dec-06 20:33N 37°49' W 122°19'0 0.0
2016-Dec-06 18:33N 37°49' W 122°19'0 0.0
2016-Dec-06 17:33N 37°49' W 122°19'0 0.0
2016-Dec-06 16:33N 37°49' W 122°19'0 0.0
2016-Dec-06 15:33N 37°49' W 122°19'1 1.1
2016-Dec-06 14:33N 37°49' W 122°20'0 0.2
2016-Dec-06 13:33N 37°49' W 122°20'1 1.2
2016-Dec-06 12:33N 37°49' W 122°19'0 0.0
2016-Dec-06 11:33N 37°49' W 122°19'0 0.0
2016-Dec-06 10:33N 37°49' W 122°19'0 0.0
2016-Dec-06 09:33N 37°49' W 122°19'0 0.0
2016-Dec-06 08:33N 37°49' W 122°19'0 0.0
2016-Dec-06 07:33N 37°49' W 122°19'0 0.0
2016-Dec-06 06:33N 37°49' W 122°19'0 0.0
2016-Dec-06 05:33N 37°49' W 122°19'0 0.0
2016-Dec-06 04:33N 37°49' W 122°19'0 0.0
2016-Dec-06 03:33N 37°49' W 122°19'0 0.0
2016-Dec-06 02:33N 37°49' W 122°19'1 1.0
2016-Dec-06 01:33N 37°49' W 122°20'3 3.4
2016-Dec-06 00:33N 37°48' W 122°24'0 0.0
2016-Dec-05 23:33N 37°48' W 122°24'0 0.0
2016-Dec-05 22:33N 37°48' W 122°24'0 0.0
2016-Dec-05 21:33N 37°48' W 122°24'10 9.3
2016-Dec-05 20:31N 37°58' W 122°26'9 9.3
2016-Dec-05 19:33N 38°03' W 122°17'3 2.7
2016-Dec-05 18:33N 38°04' W 122°14'0 0.0
2016-Dec-05 13:28N 38°04' W 122°14'2 0.8
2016-Dec-05 10:28N 38°03' W 122°11'2 0.8
2016-Dec-05 07:33N 38°04' W 122°13'5 3.7
2016-Dec-05 06:18N 38°02' W 122°08'3 0.6
2016-Dec-05 01:33N 38°03' W 122°11'2 1.7
2016-Dec-05 00:33N 38°04' W 122°13'5 0.5
2016-Dec-04 14:23N 38°02' W 122°07'8 0.5
2016-Dec-03 22:23N 38°03' W 122°18'910.6
2016-Dec-03 21:34N 37°58' W 122°26'1010.2
2016-Dec-03 20:33N 37°48' W 122°22'3 2.5
2016-Dec-03 19:33N 37°46' W 122°21'2 2.2
2016-Dec-03 18:33N 37°48' W 122°21'3 3.1
2016-Dec-03 17:33N 37°46' W 122°23'0 0.1
2016-Dec-03 16:33N 37°46' W 122°23'1 1.4
2016-Dec-03 15:33N 37°47' W 122°23'3 3.0
2016-Dec-03 14:33N 37°49' W 122°20'1 1.1
2016-Dec-03 13:34N 37°48' W 122°19'2 2.2
2016-Dec-03 12:33N 37°48' W 122°22'3 2.8
2016-Dec-03 11:33N 37°49' W 122°19'0 0.0
2016-Dec-03 10:33N 37°49' W 122°19'0 0.0
2016-Dec-03 09:33N 37°49' W 122°19'0 0.0
2016-Dec-03 08:33N 37°49' W 122°19'0 0.0
2016-Dec-03 07:33N 37°49' W 122°19'0 0.0
2016-Dec-03 06:33N 37°49' W 122°19'0 0.0
2016-Dec-03 05:33N 37°49' W 122°19'0 0.0
2016-Dec-03 04:33N 37°49' W 122°19'2 1.5
2016-Dec-03 03:33N 37°48' W 122°19'2 1.7
2016-Dec-03 02:34N 37°48' W 122°17'5 4.8
2016-Dec-03 01:33N 37°49' W 122°23'2 2.1
2016-Dec-03 00:33N 37°48' W 122°21'2 1.8
2016-Dec-02 23:33N 37°49' W 122°19'0 0.0
2016-Dec-02 22:33N 37°49' W 122°19'4 4.2
2016-Dec-02 21:33N 37°51' W 122°23'4 4.2
2016-Dec-02 20:33N 37°55' W 122°25'0 0.0
2016-Dec-02 19:33N 37°55' W 122°25'7 7.3
2016-Dec-02 18:33N 37°49' W 122°21'2 2.0
2016-Dec-02 17:33N 37°49' W 122°19'0 0.0
2016-Dec-02 16:33N 37°49' W 122°19'0 0.0
2016-Dec-02 15:33N 37°49' W 122°19'0 0.0
2016-Dec-02 14:33N 37°49' W 122°19'1 1.0
2016-Dec-02 13:33N 37°49' W 122°20'0 0.3
2016-Dec-02 12:33N 37°49' W 122°20'0 0.0
2016-Dec-02 11:33N 37°49' W 122°20'0 0.0
2016-Dec-02 10:33N 37°49' W 122°20'0 0.0
2016-Dec-02 09:33N 37°49' W 122°20'0 0.0
2016-Dec-02 08:33N 37°49' W 122°20'0 0.0
2016-Dec-02 07:33N 37°49' W 122°20'0 0.0
2016-Dec-02 06:33N 37°49' W 122°20'0 0.0
2016-Dec-02 05:33N 37°49' W 122°20'0 0.0
2016-Dec-02 04:33N 37°49' W 122°20'1 0.7
2016-Dec-02 03:33N 37°49' W 122°21'9 9.2
2016-Dec-02 02:33N 37°57' W 122°26'1110.3
2016-Dec-02 01:29N 38°04' W 122°15'3 0.9
2016-Dec-01 22:33N 38°03' W 122°18'9 9.3
2016-Dec-01 21:33N 37°57' W 122°27'1010.1
2016-Dec-01 20:33N 37°48' W 122°22'3 3.2
2016-Dec-01 19:34N 37°45' W 122°21'4 3.8
2016-Dec-01 18:33N 37°49' W 122°20'0 0.0
2016-Dec-01 17:33N 37°49' W 122°20'0 0.0
2016-Dec-01 16:33N 37°49' W 122°20'0 0.0
2016-Dec-01 15:33N 37°49' W 122°20'0 0.3
2016-Dec-01 14:33N 37°49' W 122°20'1 1.3
2016-Dec-01 13:33N 37°48' W 122°21'2 2.3
2016-Dec-01 12:33N 37°49' W 122°19'0 0.0
2016-Dec-01 11:33N 37°49' W 122°19'0 0.0
2016-Dec-01 10:33N 37°49' W 122°19'0 0.0
2016-Dec-01 09:33N 37°49' W 122°19'0 0.0
2016-Dec-01 08:33N 37°49' W 122°19'0 0.0
2016-Dec-01 07:33N 37°49' W 122°19'0 0.0
2016-Dec-01 06:33N 37°49' W 122°19'0 0.0
2016-Dec-01 05:33N 37°49' W 122°19'0 0.0
2016-Dec-01 04:33N 37°49' W 122°19'0 0.0
2016-Dec-01 03:33N 37°49' W 122°19'0 0.0
2016-Dec-01 02:33N 37°49' W 122°19'0 0.0
2016-Dec-01 01:33N 37°49' W 122°19'0 0.0
2016-Dec-01 00:33N 37°49' W 122°19'0 0.0
2016-Nov-30 23:33N 37°49' W 122°19'0 0.0
2016-Nov-30 22:33N 37°49' W 122°19'0 0.0
2016-Nov-30 21:33N 37°49' W 122°19'0 0.0
2016-Nov-30 20:33N 37°49' W 122°19'0 0.0
2016-Nov-30 19:33N 37°49' W 122°19'0 0.0
2016-Nov-30 18:33N 37°49' W 122°19'0 0.0
2016-Nov-30 17:33N 37°49' W 122°19'0 0.0
2016-Nov-30 16:33N 37°49' W 122°19'0 0.0
2016-Nov-30 15:33N 37°49' W 122°19'0 0.0
2016-Nov-30 14:33N 37°49' W 122°19'1 1.1
2016-Nov-30 13:33N 37°49' W 122°20'1 0.6
2016-Nov-30 12:33N 37°48' W 122°21'2 1.8
2016-Nov-30 11:33N 37°49' W 122°19'0 0.0
2016-Nov-30 10:33N 37°49' W 122°19'0 0.0
2016-Nov-30 09:33N 37°49' W 122°19'0 0.0
2016-Nov-30 08:33N 37°49' W 122°19'0 0.0
2016-Nov-30 07:33N 37°49' W 122°19'0 0.0
2016-Nov-30 06:33N 37°49' W 122°19'0 0.0
2016-Nov-30 05:33N 37°49' W 122°19'0 0.0
2016-Nov-30 04:33N 37°49' W 122°19'0 0.0
2016-Nov-30 03:33N 37°49' W 122°19'0 0.0
2016-Nov-30 02:33N 37°49' W 122°19'0 0.0
2016-Nov-30 01:33N 37°49' W 122°19'1 0.9
2016-Nov-30 00:33N 37°49' W 122°20'0 0.1
2016-Nov-29 23:33N 37°49' W 122°20'6 5.6
2016-Nov-29 22:33N 37°53' W 122°25'10 9.5
2016-Nov-29 21:33N 38°02' W 122°21'10 4.7
2016-Nov-29 19:22N 38°02' W 122°08'6 6.4
2016-Nov-29 18:30N 38°04' W 122°15'1010.5
2016-Nov-29 17:33N 37°59' W 122°26'9 8.6
2016-Nov-29 16:33N 37°50' W 122°27'2 2.0
2016-Nov-29 15:33N 37°49' W 122°29'7 7.3
2016-Nov-29 14:33N 37°48' W 122°20'2 1.8
2016-Nov-29 13:34N 37°48' W 122°18'1 0.9
2016-Nov-29 12:34N 37°48' W 122°19'2 1.6
2016-Nov-29 11:33N 37°49' W 122°19'0 0.0
2016-Nov-29 10:33N 37°49' W 122°19'0 0.0
2016-Nov-29 09:33N 37°49' W 122°19'0 0.0
2016-Nov-29 08:33N 37°49' W 122°19'0 0.1
2016-Nov-29 07:33N 37°49' W 122°19'0 0.1
2016-Nov-29 06:33N 37°49' W 122°19'0 0.0
2016-Nov-29 05:33N 37°49' W 122°19'0 0.0
2016-Nov-29 04:33N 37°49' W 122°19'0 0.0
2016-Nov-29 03:33N 37°49' W 122°19'0 0.0
2016-Nov-29 02:33N 37°49' W 122°19'0 0.0
2016-Nov-29 01:33N 37°49' W 122°19'2 2.4
2016-Nov-29 00:33N 37°50' W 122°22'5 5.0
2016-Nov-28 23:33N 37°54' W 122°24'1 1.4
2016-Nov-28 22:33N 37°55' W 122°22'0 0.0
2016-Nov-28 21:33N 37°55' W 122°22'3 3.4
2016-Nov-28 20:33N 37°52' W 122°24'5 5.3
2016-Nov-28 19:33N 37°49' W 122°19'0 0.0
2016-Nov-28 18:33N 37°49' W 122°19'0 0.0
2016-Nov-28 17:33N 37°49' W 122°19'0 0.0
2016-Nov-28 16:33N 37°49' W 122°19'0 0.0
2016-Nov-28 15:33N 37°49' W 122°19'0 0.0
2016-Nov-28 14:33N 37°49' W 122°19'2 1.6
2016-Nov-28 13:34N 37°48' W 122°19'3 3.2
2016-Nov-28 12:34N 37°48' W 122°23'2 2.1
2016-Nov-28 11:33N 37°49' W 122°20'0 0.0
2016-Nov-28 10:33N 37°49' W 122°20'0 0.0
2016-Nov-28 09:33N 37°49' W 122°20'0 0.0
2016-Nov-28 08:33N 37°49' W 122°20'0 0.0
2016-Nov-28 07:33N 37°49' W 122°20'0 0.0
2016-Nov-28 06:33N 37°49' W 122°20'5 5.2
2016-Nov-28 05:33N 37°53' W 122°24'3 2.7
2016-Nov-28 04:33N 37°55' W 122°25'5 4.6
2016-Nov-28 03:33N 37°51' W 122°24'6 5.8
2016-Nov-28 02:33N 37°45' W 122°21'  

Dump ship's entire track history